Time;durP1;ratioP1;P1;durP2;ratioP2;P2;SDS_P1;SDS_P2;PMS_P1;PMS_P2;Temp;Humidity;BMP_temperature;BMP_pressure;BME280_temperature;BME280_humidity;BME280_pressure;Samples;Min_cycle;Max_cycle;Signal;HPM_P1;HPM_P2
2022/04/29 00:00:34;;;;;;;13.63;6.80;;;;;;;;;;5011722;28;20135;-63
2022/04/29 00:03:00;;;;;;;16.92;7.43;;;;;;;;;;5010265;28;20075;-63
2022/04/29 00:05:27;;;;;;;13.82;6.88;;;;;;;;;;5012033;28;20034;-63
2022/04/29 00:07:53;;;;;;;14.07;7.00;;;;;;;;;;5013064;28;20634;-63
2022/04/29 00:10:19;;;;;;;10.07;6.28;;;;;;;;;;5014394;28;20104;-63
2022/04/29 00:12:46;;;;;;;13.65;7.00;;;;;;;;;;5013788;28;20038;-63
2022/04/29 00:15:13;;;;;;;14.63;7.07;;;;;;;;;;5010109;28;20470;-63
2022/04/29 00:17:39;;;;;;;16.00;7.18;;;;;;;;;;5022573;28;20637;-63
2022/04/29 00:20:06;;;;;;;15.65;6.22;;;;;;;;;;5024631;28;20120;-63
2022/04/29 00:22:33;;;;;;;10.45;5.95;;;;;;;;;;5015476;28;20040;-63
2022/04/29 00:24:59;;;;;;;12.77;6.40;;;;;;;;;;5002855;28;20037;-63
2022/04/29 00:27:25;;;;;;;14.20;6.00;;;;;;;;;;5013439;28;20042;-63
2022/04/29 00:29:51;;;;;;;13.70;6.43;;;;;;;;;;5004315;28;20120;-63
2022/04/29 00:32:17;;;;;;;13.20;6.65;;;;;;;;;;5021818;28;20052;-63
2022/04/29 00:34:43;;;;;;;12.60;7.15;;;;;;;;;;5008053;28;20080;-63
2022/04/29 00:37:10;;;;;;;15.18;6.70;;;;;;;;;;5008785;28;20120;-63
2022/04/29 00:39:36;;;;;;;14.40;6.43;;;;;;;;;;5008632;28;20108;-63
2022/04/29 00:42:10;;;;;;;14.70;6.43;;;;;;;;;;5004610;28;20045;-63
2022/04/29 00:44:38;;;;;;;15.02;6.22;;;;;;;;;;5010634;28;20100;-63
2022/04/29 00:47:05;;;;;;;18.73;6.30;;;;;;;;;;5011011;28;20057;-63
2022/04/29 00:49:31;;;;;;;11.32;6.03;;;;;;;;;;5018761;28;20410;-63
2022/04/29 00:51:58;;;;;;;17.30;6.45;;;;;;;;;;5009535;28;20038;-63
2022/04/29 00:54:30;;;;;;;14.43;6.20;;;;;;;;;;5008040;28;20046;-63
2022/04/29 00:56:57;;;;;;;14.50;6.45;;;;;;;;;;5009453;28;20054;-63
2022/04/29 00:59:55;;;;;;;9.82;6.20;;;;;;;;;;5011844;28;20407;-63
2022/04/29 01:02:21;;;;;;;10.40;5.68;;;;;;;;;;4966384;28;20496;-63
2022/04/29 01:04:56;;;;;;;11.25;5.80;;;;;;;;;;5010383;28;20045;-63
2022/04/29 01:07:22;;;;;;;14.75;6.07;;;;;;;;;;5008584;28;20510;-63
2022/04/29 01:09:49;;;;;;;8.20;5.72;;;;;;;;;;5018931;28;20434;-64
2022/04/29 01:12:15;;;;;;;12.20;5.78;;;;;;;;;;5022772;28;20034;-64
2022/04/29 01:14:44;;;;;;;10.95;6.25;;;;;;;;;;5026155;28;20041;-64
2022/04/29 01:17:10;;;;;;;10.57;5.70;;;;;;;;;;5022358;28;20470;-64
2022/04/29 01:19:38;;;;;;;10.93;6.28;;;;;;;;;;5015355;28;20404;-64
2022/04/29 01:22:04;;;;;;;9.63;5.70;;;;;;;;;;5011103;28;20037;-64
2022/04/29 01:24:30;;;;;;;12.73;6.10;;;;;;;;;;5013862;28;20033;-64
2022/04/29 01:26:56;;;;;;;14.93;5.93;;;;;;;;;;5010092;28;20111;-63
2022/04/29 01:29:23;;;;;;;15.15;6.47;;;;;;;;;;5040273;22;20049;-61
2022/04/29 01:31:50;;;;;;;15.00;6.20;;;;;;;;;;5025421;28;20049;-60
2022/04/29 01:34:16;;;;;;;10.15;5.68;;;;;;;;;;5026721;28;20053;-61
2022/04/29 01:36:42;;;;;;;11.48;5.40;;;;;;;;;;5041278;28;20037;-61
2022/04/29 01:39:08;;;;;;;12.20;5.38;;;;;;;;;;5041811;28;20049;-61
2022/04/29 01:41:34;;;;;;;14.07;6.63;;;;;;;;;;5038062;28;20043;-60
2022/04/29 01:44:00;;;;;;;14.40;6.05;;;;;;;;;;5036636;28;20045;-60
2022/04/29 01:46:26;;;;;;;11.50;6.20;;;;;;;;;;5029388;28;20036;-60
2022/04/29 01:48:52;;;;;;;9.00;6.28;;;;;;;;;;5032410;28;20407;-60
2022/04/29 01:51:18;;;;;;;10.65;6.07;;;;;;;;;;5031029;28;20030;-60
2022/04/29 01:53:45;;;;;;;11.60;5.47;;;;;;;;;;5031337;28;20048;-60
2022/04/29 01:56:11;;;;;;;12.32;6.18;;;;;;;;;;5032056;28;20117;-60
2022/04/29 01:58:37;;;;;;;10.43;5.22;;;;;;;;;;5030530;28;20124;-60
2022/04/29 02:01:03;;;;;;;13.13;6.15;;;;;;;;;;5029929;28;20040;-60
2022/04/29 02:03:29;;;;;;;11.10;5.50;;;;;;;;;;5032565;28;20071;-60
2022/04/29 02:05:55;;;;;;;12.10;5.32;;;;;;;;;;5036934;28;20038;-60
2022/04/29 02:08:22;;;;;;;13.30;5.82;;;;;;;;;;5029515;28;20115;-60
2022/04/29 02:10:48;;;;;;;9.40;6.57;;;;;;;;;;5039386;28;20419;-61
2022/04/29 02:13:14;;;;;;;12.30;6.13;;;;;;;;;;5032113;28;20095;-60
2022/04/29 02:15:40;;;;;;;12.20;6.90;;;;;;;;;;5030788;28;20091;-60
2022/04/29 02:18:07;;;;;;;11.30;6.15;;;;;;;;;;5047942;28;20049;-60
2022/04/29 02:20:33;;;;;;;13.15;6.43;;;;;;;;;;5035118;28;20053;-60
2022/04/29 02:22:59;;;;;;;10.45;6.28;;;;;;;;;;5030993;28;20033;-60
2022/04/29 02:25:25;;;;;;;10.60;5.75;;;;;;;;;;5031250;28;20039;-60
2022/04/29 02:27:51;;;;;;;9.90;5.82;;;;;;;;;;5030372;28;20042;-60
2022/04/29 02:30:17;;;;;;;11.18;6.32;;;;;;;;;;5038643;28;20445;-60
2022/04/29 02:32:43;;;;;;;14.63;6.85;;;;;;;;;;5018448;28;20091;-60
2022/04/29 02:35:10;;;;;;;10.60;6.57;;;;;;;;;;5030517;28;20087;-60
2022/04/29 02:37:36;;;;;;;10.30;6.22;;;;;;;;;;5030708;28;20049;-60
2022/04/29 02:40:02;;;;;;;11.68;6.05;;;;;;;;;;5040132;28;20041;-60
2022/04/29 02:42:28;;;;;;;12.02;6.20;;;;;;;;;;5033961;28;20108;-60
2022/04/29 02:44:54;;;;;;;10.07;6.82;;;;;;;;;;5020802;28;20036;-60
2022/04/29 02:47:20;;;;;;;10.73;6.05;;;;;;;;;;5039525;28;20052;-60
2022/04/29 02:49:47;;;;;;;9.05;5.90;;;;;;;;;;5013385;28;20045;-61
2022/04/29 02:52:13;;;;;;;14.70;6.05;;;;;;;;;;5030324;28;20104;-61
2022/04/29 02:54:40;;;;;;;10.23;6.20;;;;;;;;;;5039930;28;20477;-60
2022/04/29 02:57:06;;;;;;;13.93;6.50;;;;;;;;;;5025248;28;20038;-60
2022/04/29 02:59:32;;;;;;;12.45;6.88;;;;;;;;;;5026931;28;20033;-60
2022/04/29 03:01:58;;;;;;;12.57;6.78;;;;;;;;;;5030207;28;20037;-60
2022/04/29 03:04:25;;;;;;;14.32;7.18;;;;;;;;;;5012230;28;20052;-60
2022/04/29 03:06:51;;;;;;;13.32;6.85;;;;;;;;;;5022114;28;20037;-60
2022/04/29 03:09:17;;;;;;;9.65;6.22;;;;;;;;;;5022551;28;20052;-60
2022/04/29 03:11:43;;;;;;;13.60;6.82;;;;;;;;;;5037121;28;20046;-60
2022/04/29 03:14:09;;;;;;;13.52;6.88;;;;;;;;;;5044835;28;20465;-60
2022/04/29 03:16:35;;;;;;;12.05;6.65;;;;;;;;;;5042161;28;20037;-60
2022/04/29 03:19:01;;;;;;;15.32;7.28;;;;;;;;;;5034636;28;20156;-60
2022/04/29 03:21:28;;;;;;;12.82;6.68;;;;;;;;;;5034067;28;20037;-60
2022/04/29 03:23:54;;;;;;;13.60;7.15;;;;;;;;;;5041356;28;20030;-60
2022/04/29 03:26:20;;;;;;;16.17;7.05;;;;;;;;;;5040361;28;20131;-60
2022/04/29 03:28:46;;;;;;;12.60;6.95;;;;;;;;;;5048552;28;20047;-60
2022/04/29 03:31:12;;;;;;;12.38;6.60;;;;;;;;;;5035241;28;20069;-60
2022/04/29 03:33:38;;;;;;;14.65;7.38;;;;;;;;;;5034722;28;20075;-60
2022/04/29 03:36:04;;;;;;;11.55;6.70;;;;;;;;;;5024722;28;20041;-60
2022/04/29 03:38:30;;;;;;;14.00;7.05;;;;;;;;;;5045478;28;20120;-60
2022/04/29 03:40:56;;;;;;;11.43;7.13;;;;;;;;;;5020311;28;20116;-60
2022/04/29 03:43:22;;;;;;;12.45;6.80;;;;;;;;;;5023064;28;20048;-61
2022/04/29 03:45:48;;;;;;;13.27;7.05;;;;;;;;;;5023699;28;20579;-60
2022/04/29 03:48:14;;;;;;;17.92;6.93;;;;;;;;;;5032216;28;20122;-60
2022/04/29 03:50:41;;;;;;;12.90;7.10;;;;;;;;;;5026059;28;20383;-60
2022/04/29 03:53:07;;;;;;;16.48;7.15;;;;;;;;;;5041914;28;20037;-60
2022/04/29 03:55:34;;;;;;;14.68;7.25;;;;;;;;;;5035072;28;20041;-60
2022/04/29 03:58:02;;;;;;;15.25;6.72;;;;;;;;;;5041338;28;20049;-60
2022/04/29 04:00:31;;;;;;;14.65;8.00;;;;;;;;;;5047644;28;20125;-61
2022/04/29 04:02:57;;;;;;;14.13;7.03;;;;;;;;;;5033947;28;20033;-61
2022/04/29 04:05:23;;;;;;;12.80;7.10;;;;;;;;;;5031605;28;20128;-60
2022/04/29 04:07:49;;;;;;;11.73;7.18;;;;;;;;;;5045306;28;20041;-60
2022/04/29 04:10:15;;;;;;;11.20;7.07;;;;;;;;;;5013532;28;20544;-60
2022/04/29 04:12:42;;;;;;;19.92;6.88;;;;;;;;;;5029134;28;20086;-60
2022/04/29 04:15:09;;;;;;;13.73;6.72;;;;;;;;;;5035649;28;20041;-60
2022/04/29 04:17:35;;;;;;;16.58;7.45;;;;;;;;;;5033638;28;20073;-60
2022/04/29 04:20:01;;;;;;;12.80;7.00;;;;;;;;;;5034276;28;20033;-60
2022/04/29 04:22:27;;;;;;;13.32;6.53;;;;;;;;;;5043918;28;20036;-60
2022/04/29 04:24:53;;;;;;;11.93;6.60;;;;;;;;;;5039286;28;20036;-59
2022/04/29 04:27:20;;;;;;;12.55;7.35;;;;;;;;;;5068169;28;20387;-60
2022/04/29 04:29:45;;;;;;;19.77;7.68;;;;;;;;;;5030110;28;20087;-59
2022/04/29 04:32:11;;;;;;;14.13;6.63;;;;;;;;;;5025689;28;20041;-60
2022/04/29 04:34:49;;;;;;;16.70;7.57;;;;;;;;;;5033849;28;20037;-60
2022/04/29 04:37:17;;;;;;;16.70;6.95;;;;;;;;;;5035385;28;20494;-60
2022/04/29 04:39:43;;;;;;;16.70;7.38;;;;;;;;;;5016635;28;20058;-60
2022/04/29 04:42:09;;;;;;;17.20;6.95;;;;;;;;;;5020012;28;20056;-60
2022/04/29 04:44:35;;;;;;;14.02;8.13;;;;;;;;;;5039893;28;20073;-60
2022/04/29 04:47:01;;;;;;;12.38;6.68;;;;;;;;;;5032706;28;20080;-60
2022/04/29 04:49:27;;;;;;;16.92;8.45;;;;;;;;;;5034642;28;20041;-60
2022/04/29 04:51:53;;;;;;;16.17;8.10;;;;;;;;;;5040508;28;20037;-60
2022/04/29 04:54:19;;;;;;;16.15;8.55;;;;;;;;;;5014722;28;20099;-60
2022/04/29 04:56:45;;;;;;;16.45;8.48;;;;;;;;;;5046418;28;20041;-60
2022/04/29 04:59:12;;;;;;;17.45;8.65;;;;;;;;;;5035209;28;20091;-60
2022/04/29 05:01:38;;;;;;;18.63;8.68;;;;;;;;;;5032037;28;20311;-60
2022/04/29 05:04:04;;;;;;;16.25;8.32;;;;;;;;;;5040106;28;20496;-60
2022/04/29 05:06:30;;;;;;;19.15;9.40;;;;;;;;;;5040364;28;20121;-60
2022/04/29 05:08:56;;;;;;;22.85;9.15;;;;;;;;;;5031754;28;20116;-60
2022/04/29 05:11:22;;;;;;;19.13;9.82;;;;;;;;;;5046127;28;20048;-60
2022/04/29 05:13:48;;;;;;;25.05;9.15;;;;;;;;;;5032734;28;20106;-60
2022/04/29 05:16:14;;;;;;;18.67;8.98;;;;;;;;;;5031867;28;20399;-60
2022/04/29 05:18:40;;;;;;;16.77;9.25;;;;;;;;;;5034299;28;20049;-60
2022/04/29 05:21:06;;;;;;;16.88;8.85;;;;;;;;;;5034283;28;20037;-60
2022/04/29 05:23:33;;;;;;;19.27;8.73;;;;;;;;;;5029782;28;20037;-60
2022/04/29 05:25:59;;;;;;;14.93;8.15;;;;;;;;;;5031084;28;20051;-60
2022/04/29 05:28:25;;;;;;;19.25;8.25;;;;;;;;;;5034647;28;20045;-60
2022/04/29 05:30:51;;;;;;;17.80;8.15;;;;;;;;;;5031597;28;20518;-60
2022/04/29 05:33:17;;;;;;;14.90;7.75;;;;;;;;;;5034183;28;20122;-60
2022/04/29 05:35:43;;;;;;;16.77;8.13;;;;;;;;;;5042139;28;20061;-60
2022/04/29 05:38:09;;;;;;;18.70;8.23;;;;;;;;;;5027970;28;20046;-60
2022/04/29 05:43:20;;;;;;;14.85;7.53;;;;;;;;;;5037681;28;20037;-60
2022/04/29 05:45:46;;;;;;;15.50;7.50;;;;;;;;;;5030660;28;20037;-60
2022/04/29 05:48:12;;;;;;;15.73;7.03;;;;;;;;;;5038952;28;20494;-60
2022/04/29 05:50:38;;;;;;;14.88;6.57;;;;;;;;;;5039198;28;20179;-60
2022/04/29 05:53:04;;;;;;;12.48;6.78;;;;;;;;;;5038647;28;20037;-60
2022/04/29 05:55:30;;;;;;;14.43;6.50;;;;;;;;;;5041846;28;20052;-60
2022/04/29 05:57:56;;;;;;;14.32;7.50;;;;;;;;;;5031716;28;20446;-61
2022/04/29 06:00:22;;;;;;;15.43;7.03;;;;;;;;;;5033749;28;20083;-60
2022/04/29 06:02:48;;;;;;;16.73;7.60;;;;;;;;;;5042943;28;20029;-60
2022/04/29 06:05:14;;;;;;;16.77;7.57;;;;;;;;;;5039756;28;20044;-60
2022/04/29 06:07:41;;;;;;;13.07;7.18;;;;;;;;;;5029849;28;20037;-60
2022/04/29 06:10:08;;;;;;;14.82;7.40;;;;;;;;;;5028988;28;20037;-60
2022/04/29 06:12:40;;;;;;;15.88;7.35;;;;;;;;;;5025302;28;20092;-60
2022/04/29 06:15:06;;;;;;;18.10;8.23;;;;;;;;;;5026557;28;20030;-60
2022/04/29 06:17:32;;;;;;;18.88;7.93;;;;;;;;;;5025227;28;20037;-60
2022/04/29 06:19:59;;;;;;;18.75;7.93;;;;;;;;;;5030590;28;20193;-60
2022/04/29 06:22:25;;;;;;;19.35;8.15;;;;;;;;;;5019216;28;20037;-60
2022/04/29 06:24:51;;;;;;;13.25;7.78;;;;;;;;;;5044598;28;20046;-60
2022/04/29 06:27:17;;;;;;;19.05;7.80;;;;;;;;;;5013961;28;20518;-60
2022/04/29 06:29:43;;;;;;;13.20;8.02;;;;;;;;;;5022029;28;20042;-60
2022/04/29 06:32:09;;;;;;;18.10;8.27;;;;;;;;;;5026002;28;20052;-60
2022/04/29 06:34:35;;;;;;;19.75;8.35;;;;;;;;;;5026745;28;20415;-60
2022/04/29 06:37:01;;;;;;;16.08;7.75;;;;;;;;;;5022475;28;20118;-61
2022/04/29 06:39:27;;;;;;;15.15;7.18;;;;;;;;;;5029076;28;20091;-60
2022/04/29 06:41:53;;;;;;;19.88;8.13;;;;;;;;;;5020902;28;20029;-60
2022/04/29 06:44:19;;;;;;;12.93;7.43;;;;;;;;;;5035324;28;20439;-61
2022/04/29 06:46:45;;;;;;;16.42;8.10;;;;;;;;;;5033989;28;20033;-61
2022/04/29 06:49:11;;;;;;;18.50;7.57;;;;;;;;;;5028988;28;20099;-60
2022/04/29 06:51:37;;;;;;;17.60;7.80;;;;;;;;;;5012757;28;20430;-60
2022/04/29 06:54:03;;;;;;;14.98;7.38;;;;;;;;;;5052095;28;20041;-60
2022/04/29 06:56:29;;;;;;;12.27;7.18;;;;;;;;;;5041641;28;20053;-60
2022/04/29 06:58:55;;;;;;;13.10;7.60;;;;;;;;;;5027715;28;20042;-60
2022/04/29 07:01:21;;;;;;;15.63;7.30;;;;;;;;;;5033497;28;20038;-60
2022/04/29 07:03:47;;;;;;;15.40;7.75;;;;;;;;;;5032011;28;20116;-60
2022/04/29 07:06:13;;;;;;;14.05;8.13;;;;;;;;;;5034115;28;20132;-60
2022/04/29 07:08:39;;;;;;;15.13;8.18;;;;;;;;;;5027610;28;20543;-60
2022/04/29 07:11:05;;;;;;;14.13;7.68;;;;;;;;;;5032317;28;20125;-60
2022/04/29 07:13:32;;;;;;;12.23;7.28;;;;;;;;;;5037077;28;20040;-61
2022/04/29 07:15:58;;;;;;;13.75;5.97;;;;;;;;;;5028632;28;20041;-60
2022/04/29 07:18:24;;;;;;;11.00;6.03;;;;;;;;;;5031972;28;20041;-60
2022/04/29 07:20:50;;;;;;;10.68;5.38;;;;;;;;;;5033725;28;20775;-61
2022/04/29 07:23:16;;;;;;;11.02;5.20;;;;;;;;;;5031982;28;20033;-60
2022/04/29 07:25:42;;;;;;;9.23;5.97;;;;;;;;;;5033151;28;20029;-60
2022/04/29 07:28:08;;;;;;;11.13;5.88;;;;;;;;;;5042103;28;20128;-60
2022/04/29 07:30:35;;;;;;;9.32;5.22;;;;;;;;;;5062368;22;20033;-64
2022/04/29 07:33:01;;;;;;;13.23;5.90;;;;;;;;;;5049356;28;20036;-64
2022/04/29 07:43:41;;;;;;;12.27;6.68;;;;;;;;;;5029801;28;20069;-64
2022/04/29 07:46:10;;;;;;;14.95;6.22;;;;;;;;;;5029798;28;20142;-64
2022/04/29 07:48:36;;;;;;;14.43;7.57;;;;;;;;;;5032826;28;20088;-64
2022/04/29 07:51:02;;;;;;;10.60;6.85;;;;;;;;;;5031242;28;20525;-64
2022/04/29 07:53:28;;;;;;;13.70;7.18;;;;;;;;;;5032142;28;20132;-64
2022/04/29 07:55:54;;;;;;;11.88;7.43;;;;;;;;;;5027712;28;20117;-64
2022/04/29 07:58:20;;;;;;;10.05;6.43;;;;;;;;;;5028814;28;20041;-64
2022/04/29 08:00:46;;;;;;;10.98;6.28;;;;;;;;;;5027871;28;20044;-64
2022/04/29 08:03:12;;;;;;;7.38;5.88;;;;;;;;;;5031295;28;20033;-64
2022/04/29 08:05:38;;;;;;;11.45;5.90;;;;;;;;;;5030124;28;20061;-64
2022/04/29 08:08:04;;;;;;;11.07;5.00;;;;;;;;;;5027873;28;20069;-64
2022/04/29 08:10:31;;;;;;;12.90;6.30;;;;;;;;;;5026126;28;20041;-64
2022/04/29 08:12:58;;;;;;;9.52;5.90;;;;;;;;;;5029411;28;20037;-64
2022/04/29 08:15:27;;;;;;;11.05;6.20;;;;;;;;;;5028768;28;20045;-64
2022/04/29 08:17:53;;;;;;;12.93;5.13;;;;;;;;;;5030555;28;20398;-64
2022/04/29 08:20:19;;;;;;;11.40;5.07;;;;;;;;;;5031691;28;20041;-64
2022/04/29 08:22:45;;;;;;;10.07;5.15;;;;;;;;;;5013976;28;20038;-64
2022/04/29 08:25:11;;;;;;;10.93;5.40;;;;;;;;;;5024103;28;20072;-64
2022/04/29 08:27:37;;;;;;;10.27;5.35;;;;;;;;;;5031052;28;20091;-64
2022/04/29 08:30:06;;;;;;;11.52;5.75;;;;;;;;;;5031952;28;20071;-64
2022/04/29 08:32:38;;;;;;;8.63;5.53;;;;;;;;;;5031702;28;20114;-65
2022/04/29 08:35:05;;;;;;;6.85;4.60;;;;;;;;;;5033213;28;20099;-65
2022/04/29 08:37:31;;;;;;;8.07;4.88;;;;;;;;;;5028813;28;20037;-64
2022/04/29 08:39:57;;;;;;;7.40;5.70;;;;;;;;;;5025378;28;20029;-65
2022/04/29 08:42:26;;;;;;;10.63;4.72;;;;;;;;;;5022877;28;20071;-65
2022/04/29 08:44:53;;;;;;;8.30;4.72;;;;;;;;;;5031960;28;20040;-64
2022/04/29 08:47:19;;;;;;;10.02;4.85;;;;;;;;;;5029746;28;20045;-64
2022/04/29 08:49:46;;;;;;;7.90;4.63;;;;;;;;;;5035610;28;20057;-64
2022/04/29 08:52:14;;;;;;;10.60;4.90;;;;;;;;;;5032281;28;20042;-63
2022/04/29 09:00:13;;;;;;;11.80;4.88;;;;;;;;;;5032167;28;20116;-61
2022/04/29 09:02:40;;;;;;;10.38;5.07;;;;;;;;;;5029384;28;20080;-62
2022/04/29 09:05:08;;;;;;;6.38;4.47;;;;;;;;;;5031144;28;20048;-62
2022/04/29 09:07:53;;;;;;;8.82;5.07;;;;;;;;;;5032681;28;20112;-62
2022/04/29 09:10:19;;;;;;;8.18;4.80;;;;;;;;;;5011006;28;20107;-61
2022/04/29 09:12:45;;;;;;;11.65;5.40;;;;;;;;;;5025206;28;20041;-62
2022/04/29 09:15:12;;;;;;;10.27;5.18;;;;;;;;;;5026906;28;20383;-62
2022/04/29 09:17:40;;;;;;;9.20;5.30;;;;;;;;;;5028205;28;20038;-61
2022/04/29 09:20:20;;;;;;;9.10;5.43;;;;;;;;;;5027830;28;20582;-63
2022/04/29 09:22:47;;;;;;;8.50;5.75;;;;;;;;;;5024686;28;20041;-62
2022/04/29 09:25:14;;;;;;;9.05;5.20;;;;;;;;;;5028665;28;20484;-62
2022/04/29 09:27:53;;;;;;;7.97;5.50;;;;;;;;;;5029903;28;20431;-62
2022/04/29 09:30:31;;;;;;;6.90;5.45;;;;;;;;;;5030853;28;20041;-62
2022/04/29 09:32:57;;;;;;;12.45;5.53;;;;;;;;;;5031389;28;20083;-62
2022/04/29 09:35:39;;;;;;;6.93;5.00;;;;;;;;;;5030191;28;20041;-62
2022/04/29 09:40:51;;;;;;;10.73;5.03;;;;;;;;;;5028639;28;20041;-62
2022/04/29 09:43:17;;;;;;;8.55;4.88;;;;;;;;;;5027650;28;20037;-62
2022/04/29 09:45:43;;;;;;;8.88;4.95;;;;;;;;;;5026488;28;20087;-62
2022/04/29 09:48:09;;;;;;;9.10;5.13;;;;;;;;;;5026204;28;20034;-62
2022/04/29 09:50:46;;;;;;;10.57;5.40;;;;;;;;;;5029773;28;20179;-62
2022/04/29 09:53:16;;;;;;;12.73;5.15;;;;;;;;;;5022535;28;20056;-62
2022/04/29 09:55:42;;;;;;;8.45;4.88;;;;;;;;;;5013177;28;20041;-63
2022/04/29 09:58:09;;;;;;;7.45;5.07;;;;;;;;;;5011404;28;20049;-62
2022/04/29 10:00:36;;;;;;;9.65;4.88;;;;;;;;;;5011412;28;20396;-62
2022/04/29 10:03:03;;;;;;;6.88;4.50;;;;;;;;;;5020884;28;20052;-62
2022/04/29 10:05:31;;;;;;;10.48;5.00;;;;;;;;;;5025919;28;20037;-62
2022/04/29 10:07:58;;;;;;;7.43;4.50;;;;;;;;;;5031900;28;20044;-62
2022/04/29 10:10:24;;;;;;;9.27;4.40;;;;;;;;;;5030626;28;20495;-62
2022/04/29 10:12:51;;;;;;;9.27;4.55;;;;;;;;;;5030928;28;20056;-62
2022/04/29 10:15:18;;;;;;;6.00;4.50;;;;;;;;;;5026109;28;20873;-62
2022/04/29 10:23:24;;;;;;;6.88;4.38;;;;;;;;;;5026405;28;20045;-62
2022/04/29 10:25:50;;;;;;;8.45;4.35;;;;;;;;;;5025546;28;20558;-62
2022/04/29 10:28:17;;;;;;;5.65;4.63;;;;;;;;;;5027997;28;20037;-62
2022/04/29 10:30:43;;;;;;;7.13;3.75;;;;;;;;;;5028123;28;20128;-62
2022/04/29 10:33:25;;;;;;;5.43;4.07;;;;;;;;;;5029707;28;20068;-62
2022/04/29 10:35:56;;;;;;;10.07;4.07;;;;;;;;;;5026040;28;20045;-62
2022/04/29 10:38:23;;;;;;;5.00;3.35;;;;;;;;;;5026312;28;20099;-62
2022/04/29 10:41:08;;;;;;;9.27;4.75;;;;;;;;;;5024061;28;20037;-62
2022/04/29 10:43:45;;;;;;;5.38;4.05;;;;;;;;;;5023462;28;20057;-62
2022/04/29 10:46:11;;;;;;;6.35;4.10;;;;;;;;;;5008685;28;20522;-62
2022/04/29 10:48:38;;;;;;;8.10;3.83;;;;;;;;;;5028056;28;20041;-62
2022/04/29 10:51:23;;;;;;;5.68;3.83;;;;;;;;;;5031141;28;20041;-62
2022/04/29 10:53:50;;;;;;;4.70;3.70;;;;;;;;;;5028566;28;20088;-62
2022/04/29 10:56:31;;;;;;;8.18;4.22;;;;;;;;;;5030315;28;20124;-62
2022/04/29 10:59:09;;;;;;;5.95;3.50;;;;;;;;;;5029060;28;20037;-62
2022/04/29 11:01:36;;;;;;;6.20;3.80;;;;;;;;;;5030268;28;20495;-62
2022/04/29 11:04:06;;;;;;;10.95;4.15;;;;;;;;;;5029605;28;20037;-62
2022/04/29 11:06:40;;;;;;;6.25;4.20;;;;;;;;;;5026861;28;20116;-62
2022/04/29 11:09:25;;;;;;;5.60;4.22;;;;;;;;;;5028807;28;20041;-62
2022/04/29 11:11:51;;;;;;;6.47;3.70;;;;;;;;;;5028897;28;20045;-62
2022/04/29 11:14:17;;;;;;;10.85;4.13;;;;;;;;;;5026047;28;20484;-62
2022/04/29 11:16:52;;;;;;;4.60;3.55;;;;;;;;;;5028421;28;20041;-62
2022/04/29 11:19:20;;;;;;;5.18;3.83;;;;;;;;;;5024236;28;20072;-62
2022/04/29 11:24:43;;;;;;;6.20;3.72;;;;;;;;;;5029304;28;20037;-62
2022/04/29 11:27:09;;;;;;;8.45;4.00;;;;;;;;;;5027573;28;20052;-62
2022/04/29 11:29:42;;;;;;;6.45;4.07;;;;;;;;;;5017881;28;20048;-62
2022/04/29 11:32:08;;;;;;;6.68;4.35;;;;;;;;;;5025834;28;20042;-62
2022/04/29 11:34:34;;;;;;;8.70;4.38;;;;;;;;;;5028823;28;20124;-62
2022/04/29 11:37:00;;;;;;;4.90;3.85;;;;;;;;;;5031669;28;20592;-62
2022/04/29 11:39:26;;;;;;;7.20;4.10;;;;;;;;;;5034031;28;20519;-62
2022/04/29 11:42:01;;;;;;;8.35;4.30;;;;;;;;;;5030490;28;20057;-62
2022/04/29 11:44:38;;;;;;;9.23;4.22;;;;;;;;;;5026249;28;20073;-62
2022/04/29 11:47:05;;;;;;;6.78;4.13;;;;;;;;;;5031181;28;20146;-62
2022/04/29 11:49:34;;;;;;;9.07;4.40;;;;;;;;;;5032644;28;20033;-62
2022/04/29 11:52:19;;;;;;;9.68;4.25;;;;;;;;;;5029397;28;20041;-62
2022/04/29 11:54:48;;;;;;;8.23;4.68;;;;;;;;;;5031455;28;20034;-62
2022/04/29 11:57:15;;;;;;;6.78;4.15;;;;;;;;;;5029768;28;20048;-61
2022/04/29 11:59:41;;;;;;;9.15;4.90;;;;;;;;;;5027784;28;20042;-62
2022/04/29 12:02:10;;;;;;;7.05;4.80;;;;;;;;;;5017469;28;20030;-62
2022/04/29 12:04:36;;;;;;;7.45;4.28;;;;;;;;;;5034079;28;20029;-62
2022/04/29 12:07:03;;;;;;;10.90;4.40;;;;;;;;;;5032355;28;20049;-62
2022/04/29 12:09:32;;;;;;;7.05;4.35;;;;;;;;;;5029419;28;20041;-62
2022/04/29 12:11:59;;;;;;;8.10;4.22;;;;;;;;;;5030099;28;20033;-62
2022/04/29 12:14:26;;;;;;;8.75;4.10;;;;;;;;;;5033498;28;20034;-62
2022/04/29 12:16:53;;;;;;;4.85;4.10;;;;;;;;;;5030411;28;20041;-62
2022/04/29 12:19:21;;;;;;;7.18;4.20;;;;;;;;;;5030012;28;20534;-62
2022/04/29 12:21:57;;;;;;;8.32;4.72;;;;;;;;;;5009540;28;20380;-62
2022/04/29 12:24:24;;;;;;;7.38;4.30;;;;;;;;;;5032094;28;20064;-62
2022/04/29 12:27:08;;;;;;;10.65;5.57;;;;;;;;;;5029141;28;20038;-62
2022/04/29 12:29:35;;;;;;;7.72;4.90;;;;;;;;;;5033441;28;20037;-62
2022/04/29 12:35:05;;;;;;;8.70;5.60;;;;;;;;;;5032000;28;20041;-62
2022/04/29 12:37:31;;;;;;;8.40;5.38;;;;;;;;;;5028419;28;20505;-62
2022/04/29 12:40:03;;;;;;;8.70;4.90;;;;;;;;;;5030625;28;20029;-62
2022/04/29 12:42:29;;;;;;;9.00;5.82;;;;;;;;;;5028725;28;20076;-62
2022/04/29 12:45:14;;;;;;;13.52;5.47;;;;;;;;;;5032752;28;20542;-62
2022/04/29 12:47:41;;;;;;;9.02;6.40;;;;;;;;;;5028419;28;20049;-61
2022/04/29 12:50:24;;;;;;;6.78;5.68;;;;;;;;;;5030619;28;20038;-62
2022/04/29 12:52:51;;;;;;;6.80;5.70;;;;;;;;;;5030187;28;20045;-61
2022/04/29 12:55:17;;;;;;;8.20;6.03;;;;;;;;;;5032099;28;20033;-62
2022/04/29 12:57:43;;;;;;;9.48;5.75;;;;;;;;;;5031279;28;20044;-62
2022/04/29 13:00:09;;;;;;;9.88;5.85;;;;;;;;;;5032326;28;20029;-61
2022/04/29 13:02:35;;;;;;;10.23;5.88;;;;;;;;;;5031986;28;20044;-62
2022/04/29 13:05:01;;;;;;;9.70;5.55;;;;;;;;;;5032529;28;20383;-62
2022/04/29 13:07:29;;;;;;;11.40;6.38;;;;;;;;;;5029367;28;20044;-62
2022/04/29 13:09:55;;;;;;;9.77;5.50;;;;;;;;;;5032232;28;20041;-62
2022/04/29 13:12:21;;;;;;;9.25;5.72;;;;;;;;;;5031449;28;20049;-62
2022/04/29 13:14:47;;;;;;;8.13;6.13;;;;;;;;;;5031190;28;20033;-63
2022/04/29 13:17:13;;;;;;;10.77;6.35;;;;;;;;;;5029129;28;20083;-63
2022/04/29 13:19:39;;;;;;;9.07;6.68;;;;;;;;;;5030997;28;20411;-62
2022/04/29 13:22:06;;;;;;;10.18;6.40;;;;;;;;;;5029095;28;20033;-63
2022/04/29 13:24:32;;;;;;;10.02;5.88;;;;;;;;;;5031706;28;20037;-62
2022/04/29 13:26:58;;;;;;;10.18;5.95;;;;;;;;;;5022175;28;20537;-62
2022/04/29 13:29:24;;;;;;;11.18;6.65;;;;;;;;;;5051992;22;20091;-61
2022/04/29 13:31:50;;;;;;;9.02;5.97;;;;;;;;;;5050212;28;20525;-61
2022/04/29 13:34:16;;;;;;;7.72;6.07;;;;;;;;;;5033788;28;20033;-62
2022/04/29 13:36:42;;;;;;;9.27;6.18;;;;;;;;;;5050983;28;20033;-62
2022/04/29 13:39:08;;;;;;;7.88;6.00;;;;;;;;;;5032537;28;20041;-61
2022/04/29 13:41:34;;;;;;;8.25;5.78;;;;;;;;;;5048146;28;20078;-61
2022/04/29 13:44:00;;;;;;;7.53;5.68;;;;;;;;;;5030474;28;20380;-61
2022/04/29 13:46:26;;;;;;;9.50;6.00;;;;;;;;;;5032082;28;20041;-61
2022/04/29 13:48:52;;;;;;;10.52;6.25;;;;;;;;;;5046184;28;20057;-61
2022/04/29 13:51:18;;;;;;;8.82;6.20;;;;;;;;;;5047709;28;20044;-61
2022/04/29 13:53:44;;;;;;;12.00;6.10;;;;;;;;;;5046770;28;20037;-62
2022/04/29 13:56:10;;;;;;;9.82;6.15;;;;;;;;;;5052206;28;20445;-61
2022/04/29 13:58:36;;;;;;;8.65;6.57;;;;;;;;;;5049263;28;20068;-61
2022/04/29 14:01:02;;;;;;;7.82;5.47;;;;;;;;;;5029231;28;20098;-61
2022/04/29 14:03:28;;;;;;;8.65;6.03;;;;;;;;;;5047438;28;20333;-61
2022/04/29 14:05:54;;;;;;;11.13;6.30;;;;;;;;;;5047144;28;20036;-61
2022/04/29 14:08:20;;;;;;;9.38;5.68;;;;;;;;;;5050387;28;20041;-61
2022/04/29 14:10:48;;;;;;;9.73;5.53;;;;;;;;;;5049076;28;20102;-61
2022/04/29 14:13:15;;;;;;;8.82;4.95;;;;;;;;;;5047643;28;20041;-61
2022/04/29 14:15:41;;;;;;;9.25;5.28;;;;;;;;;;5034071;28;20055;-61
2022/04/29 14:18:07;;;;;;;8.98;4.90;;;;;;;;;;5049257;28;20037;-61
2022/04/29 14:20:33;;;;;;;10.48;5.53;;;;;;;;;;5033698;28;20063;-61
2022/04/29 14:23:00;;;;;;;8.48;5.18;;;;;;;;;;5048083;28;20033;-60
2022/04/29 14:25:26;;;;;;;10.13;5.18;;;;;;;;;;5050381;28;20040;-60
2022/04/29 14:27:52;;;;;;;6.82;4.93;;;;;;;;;;5047584;28;20045;-61
2022/04/29 14:30:18;;;;;;;9.57;5.15;;;;;;;;;;5028289;28;20044;-61
2022/04/29 14:32:44;;;;;;;8.23;5.05;;;;;;;;;;5049408;28;20029;-61
2022/04/29 14:35:11;;;;;;;6.97;4.65;;;;;;;;;;5048745;28;20037;-61
2022/04/29 14:37:38;;;;;;;8.70;5.18;;;;;;;;;;5049244;28;20037;-61
2022/04/29 14:40:04;;;;;;;6.97;4.57;;;;;;;;;;5046944;28;20103;-61
2022/04/29 14:42:30;;;;;;;6.63;4.50;;;;;;;;;;5045354;28;20033;-60
2022/04/29 14:44:57;;;;;;;9.20;4.53;;;;;;;;;;5047512;28;20040;-61
2022/04/29 14:47:23;;;;;;;9.55;4.18;;;;;;;;;;5047159;28;20040;-61
2022/04/29 14:49:49;;;;;;;6.00;3.88;;;;;;;;;;5029587;28;20171;-61
2022/04/29 14:52:15;;;;;;;6.05;4.00;;;;;;;;;;5051851;28;20037;-61
2022/04/29 14:54:41;;;;;;;7.78;4.43;;;;;;;;;;5049042;28;20044;-61
2022/04/29 14:57:08;;;;;;;6.72;4.40;;;;;;;;;;5049300;28;20124;-60
2022/04/29 14:59:34;;;;;;;5.93;3.67;;;;;;;;;;5046027;28;20554;-60
2022/04/29 15:02:01;;;;;;;6.07;3.75;;;;;;;;;;5047609;28;20503;-60
2022/04/29 15:04:27;;;;;;;10.13;4.30;;;;;;;;;;5050841;28;20048;-60
2022/04/29 15:06:53;;;;;;;5.40;3.97;;;;;;;;;;5047750;28;20114;-60